aviador You're here:

KLIC Decoded Metar

LIMON in CO, USA
Report Time2017-04-30 11:55:00
UTC Time2017-04-30 12:40:47
Flight Rules vfr VFR
Wind340° at 27 Gusting to 37 kt
W.Decomp.*RWY 34: 26.5 kt HW 5.2 kt LCW
W.Rank340° ranks 2
Current wind is above 340° avg. (10.2)
Visibility9999 m
Phenomena:N/A
Clouds:N/A
Expected CloudBase > 1,600 ft AGL from Temp-Dew spread
CeilingNone
Temp-2°C (ISA -6)
Dew Point-6°C (74% RH)
AAT-14.4°C
QNH1012 hPa
Density Alt4,678 ft
Elevation5,348 ft
Report Wrong Elevation
Raw Report
METAR KLIC 301155Z AUTO 34027G37KT 10SM UP CLR M02/M06 A2988 RMK AO2
PK WND 33038/1109 SLP132 P0000 60000 70011 T10171056 11011
21022 56026=

Extra information for KLIC:More info

Metar Taf Metar & Taf Last 4 Metars F.Rules Stats Wind Profile Meteogram Temp Stats Airport Information Weather charts Add Link Nearby VenuesMetar ALERT Operation Metar Decoded Social comments

AIRNAV info for KLIC